createdAt,value
2023-03-21T00:01:54.447Z,2.50
2023-03-21T00:04:23.823Z,1.98
2023-03-21T00:06:51.728Z,2.13
2023-03-21T00:09:19.918Z,2.13
2023-03-21T00:11:48.169Z,1.60
2023-03-21T00:14:18.813Z,1.90
2023-03-21T00:16:50.505Z,1.80
2023-03-21T00:19:19.276Z,1.45
2023-03-21T00:22:08.746Z,2.08
2023-03-21T00:24:37.474Z,2.00
2023-03-21T00:27:34.250Z,1.55
2023-03-21T00:29:53.567Z,2.20
2023-03-21T00:32:23.015Z,1.38
2023-03-21T00:35:11.813Z,1.85
2023-03-21T00:37:41.240Z,2.05
2023-03-21T00:40:23.074Z,1.65
2023-03-21T00:42:53.079Z,1.50
2023-03-21T00:45:22.070Z,2.42
2023-03-21T00:47:50.021Z,1.30
2023-03-21T00:50:18.444Z,1.98
2023-03-21T00:52:47.715Z,3.20
2023-03-21T00:55:16.967Z,1.35
2023-03-21T00:57:47.469Z,1.42
2023-03-21T01:00:19.208Z,1.40
2023-03-21T01:03:02.581Z,1.20
2023-03-21T01:05:52.733Z,1.50
2023-03-21T01:08:29.343Z,1.00
2023-03-21T01:11:04.899Z,1.40
2023-03-21T01:13:34.620Z,0.98
2023-03-21T01:16:07.019Z,1.98
2023-03-21T01:18:36.703Z,1.60
2023-03-21T01:21:08.812Z,1.30
2023-03-21T01:23:38.234Z,1.13
2023-03-21T01:26:06.911Z,1.02
2023-03-21T01:28:37.792Z,1.30
2023-03-21T01:31:07.030Z,1.65
2023-03-21T01:33:35.595Z,1.25
2023-03-21T01:36:12.672Z,1.63
2023-03-21T01:38:42.589Z,1.05
2023-03-21T01:41:21.955Z,1.27
2023-03-21T01:43:49.788Z,1.58
2023-03-21T01:46:47.829Z,1.60
2023-03-21T01:49:26.072Z,1.40
2023-03-21T01:52:01.045Z,1.48
2023-03-21T01:54:37.361Z,1.50
2023-03-21T01:57:09.864Z,1.50
2023-03-21T01:59:41.936Z,1.57
2023-03-21T02:02:14.298Z,0.75
2023-03-21T02:04:50.797Z,2.60
2023-03-21T02:07:25.723Z,1.17
2023-03-21T02:09:56.036Z,1.35
2023-03-21T02:12:23.994Z,0.65
2023-03-21T02:14:54.122Z,1.20
2023-03-21T02:17:30.648Z,1.05
2023-03-21T02:20:37.912Z,1.63
2023-03-21T02:23:51.198Z,0.82
2023-03-21T02:27:04.749Z,1.20
2023-03-21T02:30:05.652Z,1.02
2023-03-21T02:32:56.428Z,1.30
2023-03-21T02:35:39.074Z,1.23
2023-03-21T02:38:15.419Z,1.25
2023-03-21T02:40:51.255Z,1.08
2023-03-21T02:43:28.273Z,1.10
2023-03-21T02:46:02.074Z,1.60
2023-03-21T02:48:49.853Z,1.20
2023-03-21T02:51:21.169Z,1.48
2023-03-21T02:54:21.965Z,1.02
2023-03-21T02:56:43.422Z,0.90
2023-03-21T02:59:11.722Z,1.27
2023-03-21T03:01:39.518Z,1.10
2023-03-21T03:04:19.672Z,1.58
2023-03-21T03:07:04.552Z,0.95
2023-03-21T03:09:45.464Z,1.08
2023-03-21T03:12:21.433Z,1.63
2023-03-21T03:15:03.876Z,1.08
2023-03-21T03:17:50.478Z,1.55
2023-03-21T03:20:31.553Z,1.20
2023-03-21T03:23:10.848Z,1.75
2023-03-21T03:25:46.191Z,1.23
2023-03-21T03:28:16.744Z,1.52
2023-03-21T03:31:00.843Z,1.10
2023-03-21T03:33:37.093Z,1.05
2023-03-21T03:36:07.894Z,1.02
2023-03-21T03:38:39.562Z,1.80
2023-03-21T03:41:14.733Z,0.80
2023-03-21T03:43:50.814Z,1.05
2023-03-21T03:46:24.043Z,1.63
2023-03-21T03:48:56.582Z,0.98
2023-03-21T03:51:28.910Z,1.10
2023-03-21T03:53:59.900Z,1.13
2023-03-21T03:56:30.245Z,1.33
2023-03-21T03:58:58.480Z,0.90
2023-03-21T04:01:26.661Z,0.98
2023-03-21T04:04:06.916Z,1.55
2023-03-21T04:06:39.989Z,1.10
2023-03-21T04:09:19.138Z,1.40
2023-03-21T04:11:49.648Z,1.38
2023-03-21T04:14:17.774Z,0.88
2023-03-21T04:16:45.490Z,1.27
2023-03-21T04:19:13.430Z,0.80
2023-03-21T04:21:41.191Z,1.13
2023-03-21T04:24:09.465Z,0.90
2023-03-21T04:26:37.335Z,2.05
2023-03-21T04:29:06.846Z,1.35
2023-03-21T04:31:36.113Z,1.25
2023-03-21T04:34:09.700Z,1.00
2023-03-21T04:36:42.969Z,1.23
2023-03-21T04:39:13.145Z,1.13
2023-03-21T04:41:41.350Z,1.55
2023-03-21T04:44:11.867Z,1.42
2023-03-21T04:46:40.148Z,1.83
2023-03-21T04:49:08.595Z,1.27
2023-03-21T04:51:37.308Z,1.70
2023-03-21T04:54:05.971Z,1.55
2023-03-21T04:56:35.566Z,1.38
2023-03-21T04:59:07.284Z,1.15
2023-03-21T05:01:36.453Z,2.30
2023-03-21T05:04:05.891Z,1.70
2023-03-21T05:06:34.480Z,1.48
2023-03-21T05:09:05.463Z,1.80
2023-03-21T05:11:36.011Z,2.47
2023-03-21T05:14:04.192Z,1.90
2023-03-21T05:16:31.945Z,1.40
2023-03-21T05:19:04.149Z,2.00
2023-03-21T05:21:34.111Z,1.92
2023-03-21T05:24:03.494Z,1.77
2023-03-21T05:26:31.352Z,1.98
2023-03-21T05:28:59.089Z,2.55
2023-03-21T05:31:26.843Z,1.90
2023-03-21T05:33:54.557Z,1.70
2023-03-21T05:36:23.694Z,1.95
2023-03-21T05:38:51.442Z,1.92
2023-03-21T05:41:21.290Z,1.58
2023-03-21T05:43:49.058Z,1.40
2023-03-21T05:46:16.903Z,1.90
2023-03-21T05:48:44.640Z,1.80
2023-03-21T05:51:12.385Z,1.67
2023-03-21T05:53:41.459Z,1.48
2023-03-21T05:56:10.376Z,1.48
2023-03-21T05:58:38.120Z,1.30
2023-03-21T06:01:06.408Z,2.00
2023-03-21T06:03:34.212Z,1.67
2023-03-21T06:06:03.454Z,1.85
2023-03-21T06:08:31.771Z,2.22
2023-03-21T06:11:00.884Z,1.60
2023-03-21T06:13:28.839Z,1.77
2023-03-21T06:15:56.940Z,1.75
2023-03-21T06:18:24.689Z,1.48
2023-03-21T06:20:52.424Z,1.73
2023-03-21T06:23:20.197Z,1.48
2023-03-21T06:25:49.327Z,2.10
2023-03-21T06:28:18.559Z,1.92
2023-03-21T06:30:46.310Z,2.05
2023-03-21T06:33:14.040Z,2.58
2023-03-21T06:35:41.807Z,1.75
2023-03-21T06:38:09.590Z,1.75
2023-03-21T06:40:38.975Z,2.40
2023-03-21T06:43:06.689Z,1.55
2023-03-21T06:45:36.334Z,1.85
2023-03-21T06:48:04.328Z,1.75
2023-03-21T06:50:32.086Z,2.03
2023-03-21T06:52:59.813Z,2.20
2023-03-21T06:55:28.924Z,2.00
2023-03-21T06:57:58.347Z,2.83
2023-03-21T07:00:26.643Z,2.03
2023-03-21T07:02:55.759Z,2.08
2023-03-21T07:05:23.539Z,2.40
2023-03-21T07:07:51.237Z,1.80
2023-03-21T07:10:19.004Z,1.70
2023-03-21T07:12:46.742Z,1.77
2023-03-21T07:15:14.469Z,1.75
2023-03-21T07:17:42.177Z,2.10
2023-03-21T07:20:13.357Z,1.60
2023-03-21T07:22:41.374Z,1.92
2023-03-21T07:25:10.719Z,2.03
2023-03-21T07:27:40.942Z,1.77
2023-03-21T07:30:11.056Z,1.95
2023-03-21T07:32:39.689Z,1.40
2023-03-21T07:35:09.126Z,1.90
2023-03-21T07:37:38.492Z,1.98
2023-03-21T07:40:10.429Z,2.10
2023-03-21T07:42:38.285Z,2.17
2023-03-21T07:45:07.877Z,2.28
2023-03-21T07:47:36.587Z,1.88
2023-03-21T07:50:05.442Z,2.30
2023-03-21T07:52:33.951Z,1.20
2023-03-21T07:55:03.031Z,1.65
2023-03-21T07:57:30.764Z,1.63
2023-03-21T07:59:58.493Z,1.20
2023-03-21T08:02:26.604Z,1.13
2023-03-21T08:04:54.415Z,0.82
2023-03-21T08:07:22.332Z,1.20
2023-03-21T08:09:50.071Z,0.75
2023-03-21T08:12:19.187Z,0.70
2023-03-21T08:14:46.920Z,1.17
2023-03-21T08:17:14.623Z,0.90
2023-03-21T08:19:42.343Z,1.33
2023-03-21T08:22:10.941Z,0.82
2023-03-21T08:24:38.725Z,0.80
2023-03-21T08:27:06.526Z,0.80
2023-03-21T08:29:40.437Z,1.05
2023-03-21T08:32:08.229Z,0.82
2023-03-21T08:34:36.487Z,0.70
2023-03-21T08:37:04.371Z,1.42
2023-03-21T08:39:32.217Z,0.60
2023-03-21T08:41:59.952Z,1.27
2023-03-21T08:44:27.706Z,1.15
2023-03-21T08:46:56.748Z,0.80
2023-03-21T08:49:24.495Z,0.63
2023-03-21T08:51:56.841Z,1.08
2023-03-21T08:54:24.937Z,0.80
2023-03-21T08:56:52.844Z,0.70
2023-03-21T08:59:20.818Z,0.70
2023-03-21T09:01:48.702Z,1.45
2023-03-21T09:04:18.921Z,0.80
2023-03-21T09:06:48.851Z,1.65
2023-03-21T09:09:16.944Z,0.88
2023-03-21T09:11:44.815Z,1.10
2023-03-21T09:14:12.906Z,1.55
2023-03-21T09:16:41.257Z,1.48
2023-03-21T09:19:09.702Z,1.13
2023-03-21T09:21:39.210Z,0.85
2023-03-21T09:24:07.463Z,1.10
2023-03-21T09:26:35.585Z,1.17
2023-03-21T09:29:04.950Z,1.55
2023-03-21T09:31:32.908Z,1.70
2023-03-21T09:34:01.068Z,1.70
2023-03-21T09:36:32.482Z,1.30
2023-03-21T09:39:03.928Z,1.00
2023-03-21T09:41:58.626Z,1.15
2023-03-21T09:44:37.531Z,1.48
2023-03-21T09:47:20.680Z,1.20
2023-03-21T09:49:56.632Z,1.58
2023-03-21T09:52:32.367Z,2.80
2023-03-21T09:57:35.265Z,1.55
2023-03-21T10:00:15.914Z,1.00
2023-03-21T10:02:47.115Z,1.42
2023-03-21T10:05:19.574Z,0.75
2023-03-21T10:07:52.576Z,2.03
2023-03-21T10:10:27.292Z,2.17
2023-03-21T10:12:56.418Z,1.23
2023-03-21T10:15:26.744Z,1.58
2023-03-21T10:18:01.335Z,1.50
2023-03-21T10:20:32.588Z,1.33
2023-03-21T10:23:04.675Z,1.13
2023-03-21T10:25:36.599Z,1.00
2023-03-21T10:28:07.390Z,0.70
2023-03-21T10:30:40.971Z,0.93
2023-03-21T10:33:16.826Z,2.35
2023-03-21T10:35:47.869Z,1.67
2023-03-21T10:38:18.962Z,1.40
2023-03-21T10:40:48.055Z,1.13
2023-03-21T10:43:37.466Z,1.40
2023-03-21T10:46:12.380Z,1.17
2023-03-21T10:48:46.004Z,1.75
2023-03-21T10:51:20.248Z,1.38
2023-03-21T10:53:52.401Z,1.15
2023-03-21T10:56:27.743Z,1.48
2023-03-21T10:58:59.698Z,1.13
2023-03-21T11:01:31.249Z,1.02
2023-03-21T11:04:02.011Z,1.13
2023-03-21T11:06:31.950Z,2.05
2023-03-21T11:09:05.593Z,1.02
2023-03-21T11:11:39.928Z,1.70
2023-03-21T11:14:09.609Z,1.25
2023-03-21T11:16:41.157Z,1.70
2023-03-21T11:19:17.087Z,1.67
2023-03-21T11:21:45.425Z,1.23
2023-03-21T11:24:16.219Z,2.15
2023-03-21T11:26:48.062Z,1.35
2023-03-21T11:29:27.811Z,1.65
2023-03-21T11:32:01.987Z,0.85
2023-03-21T11:34:35.041Z,0.95
2023-03-21T11:37:03.893Z,1.80
2023-03-21T11:39:34.390Z,0.98
2023-03-21T11:42:03.664Z,0.55
2023-03-21T11:44:34.568Z,1.10
2023-03-21T11:47:02.872Z,1.00
2023-03-21T11:49:31.790Z,1.35
2023-03-21T11:52:13.563Z,1.00
2023-03-21T11:54:58.973Z,1.00
2023-03-21T11:57:37.818Z,1.10
2023-03-21T12:00:16.450Z,1.60
2023-03-21T12:03:28.858Z,2.08
2023-03-21T12:06:03.245Z,1.20
2023-03-21T12:08:41.513Z,0.82
2023-03-21T12:11:16.587Z,1.15
2023-03-21T12:14:00.338Z,1.23
2023-03-21T12:16:53.438Z,1.10
2023-03-21T12:19:48.980Z,1.23
2023-03-21T12:22:28.986Z,1.17
2023-03-21T12:24:58.753Z,0.90
2023-03-21T12:27:39.187Z,0.80
2023-03-21T12:30:23.637Z,1.00
2023-03-21T12:33:02.833Z,1.25
2023-03-21T12:35:46.431Z,1.40
2023-03-21T12:38:17.818Z,1.20
2023-03-21T12:41:02.658Z,1.20
2023-03-21T12:43:40.421Z,1.20
2023-03-21T12:46:17.041Z,0.80
2023-03-21T12:48:48.556Z,1.15
2023-03-21T12:51:20.285Z,1.30
2023-03-21T12:53:56.744Z,1.55
2023-03-21T12:56:29.124Z,1.13
2023-03-21T12:59:02.012Z,1.38
2023-03-21T13:01:31.848Z,0.85
2023-03-21T13:04:20.224Z,1.10
2023-03-21T13:06:50.006Z,1.63
2023-03-21T13:09:36.831Z,1.45
2023-03-21T13:12:17.073Z,1.08
2023-03-21T13:14:53.333Z,1.23
2023-03-21T13:17:28.204Z,1.40
2023-03-21T13:20:08.133Z,1.10
2023-03-21T13:22:36.050Z,1.17
2023-03-21T13:25:07.565Z,1.27
2023-03-21T13:27:37.243Z,1.23
2023-03-21T13:30:07.481Z,0.75
2023-03-21T13:32:39.185Z,1.75
2023-03-21T13:35:16.593Z,1.70
2023-03-21T13:37:51.777Z,2.05
2023-03-21T13:40:26.022Z,1.20
2023-03-21T13:42:57.012Z,0.85
2023-03-21T13:45:29.257Z,1.58
2023-03-21T13:48:00.593Z,1.70
2023-03-21T13:50:50.733Z,0.70
2023-03-21T13:53:33.908Z,0.93
2023-03-21T13:56:09.243Z,1.42
2023-03-21T13:58:40.058Z,1.02
2023-03-21T14:01:23.743Z,0.98
2023-03-21T14:04:00.004Z,1.48
2023-03-21T14:06:35.098Z,1.20
2023-03-21T14:09:04.064Z,2.35
2023-03-21T14:11:33.611Z,1.58
2023-03-21T14:14:03.397Z,1.15
2023-03-21T14:16:32.489Z,1.40
2023-03-21T14:19:04.884Z,1.30
2023-03-21T14:21:35.865Z,1.15
2023-03-21T14:24:05.962Z,1.92
2023-03-21T14:26:35.911Z,0.88
2023-03-21T14:29:09.628Z,1.58
2023-03-21T14:31:43.396Z,1.90
2023-03-21T14:34:12.655Z,3.15
2023-03-21T14:36:45.736Z,1.30
2023-03-21T14:39:19.156Z,2.17
2023-03-21T14:41:50.038Z,1.20
2023-03-21T14:44:26.116Z,2.58
2023-03-21T14:46:55.631Z,1.10
2023-03-21T14:49:27.736Z,1.42
2023-03-21T14:51:57.869Z,1.15
2023-03-21T14:54:28.151Z,2.47
2023-03-21T14:57:01.346Z,1.40
2023-03-21T15:02:04.060Z,1.33
2023-03-21T15:04:33.964Z,1.00
2023-03-21T15:07:05.264Z,1.30
2023-03-21T15:09:35.748Z,1.35
2023-03-21T15:12:09.644Z,1.48
2023-03-21T15:14:39.036Z,1.50
2023-03-21T15:17:09.158Z,1.25
2023-03-21T15:19:40.406Z,1.02
2023-03-21T15:22:15.860Z,0.80
2023-03-21T15:24:48.212Z,1.10
2023-03-21T15:27:19.836Z,1.20
2023-03-21T15:29:51.022Z,1.20
2023-03-21T15:32:22.716Z,2.33
2023-03-21T15:34:54.719Z,1.40
2023-03-21T15:37:24.774Z,1.05
2023-03-21T15:40:09.401Z,0.93
2023-03-21T15:42:40.426Z,1.23
2023-03-21T15:45:18.432Z,0.77
2023-03-21T15:47:53.487Z,1.20
2023-03-21T15:50:33.913Z,0.93
2023-03-21T15:53:03.880Z,1.63
2023-03-21T15:55:36.242Z,1.65
2023-03-21T15:58:07.634Z,1.10
2023-03-21T16:00:41.168Z,1.40
2023-03-21T16:03:18.143Z,1.98
2023-03-21T16:06:08.841Z,1.08
2023-03-21T16:08:40.450Z,1.17
2023-03-21T16:11:15.061Z,1.70
2023-03-21T16:13:42.789Z,1.48
2023-03-21T16:16:17.583Z,1.10
2023-03-21T16:18:45.406Z,1.42
2023-03-21T16:21:16.534Z,1.38
2023-03-21T16:23:44.262Z,1.35
2023-03-21T16:26:14.664Z,1.75
2023-03-21T16:28:42.375Z,1.17
2023-03-21T16:31:14.780Z,1.67
2023-03-21T16:33:42.664Z,1.20
2023-03-21T16:36:17.805Z,1.30
2023-03-21T16:38:46.019Z,1.08
2023-03-21T16:41:14.809Z,1.33
2023-03-21T16:43:43.902Z,2.13
2023-03-21T16:46:14.860Z,1.67
2023-03-21T16:48:43.313Z,1.77
2023-03-21T16:51:16.069Z,1.67
2023-03-21T16:53:44.315Z,1.48
2023-03-21T16:56:16.130Z,1.45
2023-03-21T16:58:44.437Z,1.77
2023-03-21T17:01:15.502Z,1.20
2023-03-21T17:03:43.885Z,2.00
2023-03-21T17:06:17.078Z,1.90
2023-03-21T17:08:45.233Z,1.05
2023-03-21T17:11:16.401Z,1.40
2023-03-21T17:13:44.701Z,1.02
2023-03-21T17:16:13.511Z,1.75
2023-03-21T17:18:41.532Z,2.22
2023-03-21T17:21:14.731Z,1.30
2023-03-21T17:23:44.534Z,1.70
2023-03-21T17:26:14.466Z,1.63
2023-03-21T17:28:42.626Z,1.38
2023-03-21T17:31:15.034Z,3.40
2023-03-21T17:33:43.221Z,1.80
2023-03-21T17:36:15.643Z,1.33
2023-03-21T17:38:45.855Z,1.30
2023-03-21T17:41:15.306Z,1.38
2023-03-21T17:43:43.051Z,1.27
2023-03-21T17:46:14.393Z,2.67
2023-03-21T17:48:42.610Z,2.30
2023-03-21T17:51:12.746Z,1.23
2023-03-21T17:53:40.556Z,2.17
2023-03-21T17:56:13.823Z,1.98
2023-03-21T17:58:41.537Z,1.92
2023-03-21T18:01:09.424Z,1.33
2023-03-21T18:03:37.102Z,1.73
2023-03-21T18:06:05.905Z,2.20
2023-03-21T18:08:34.126Z,1.70
2023-03-21T18:11:01.867Z,1.67
2023-03-21T18:13:31.195Z,2.65
2023-03-21T18:15:59.825Z,1.30
2023-03-21T18:18:28.246Z,1.88
2023-03-21T18:20:58.456Z,2.25
2023-03-21T18:23:26.647Z,1.67
2023-03-21T18:25:54.412Z,1.73
2023-03-21T18:28:22.594Z,2.28
2023-03-21T18:31:08.283Z,1.65
2023-03-21T18:33:40.305Z,1.63
2023-03-21T18:36:08.955Z,2.05
2023-03-21T18:38:37.445Z,2.08
2023-03-21T18:41:05.549Z,1.65
2023-03-21T18:46:22.969Z,1.83
2023-03-21T18:48:51.802Z,1.52
2023-03-21T18:51:20.005Z,1.73
2023-03-21T18:53:47.774Z,1.65
2023-03-21T18:56:56.194Z,1.85
2023-03-21T18:59:03.676Z,3.17
2023-03-21T19:01:33.498Z,2.80
2023-03-21T19:04:23.803Z,2.15
2023-03-21T19:06:50.286Z,1.98
2023-03-21T19:09:18.711Z,1.90
2023-03-21T19:11:47.205Z,2.03
2023-03-21T19:14:17.125Z,2.17
2023-03-21T19:17:34.563Z,2.22
2023-03-21T19:19:34.658Z,2.55
2023-03-21T19:22:02.431Z,1.52
2023-03-21T19:24:30.127Z,2.28
2023-03-21T19:26:57.976Z,2.40
2023-03-21T19:29:26.128Z,1.95
2023-03-21T19:31:55.350Z,1.80
2023-03-21T19:34:23.146Z,1.55
2023-03-21T19:36:52.312Z,2.03
2023-03-21T19:39:22.405Z,1.75
2023-03-21T19:41:50.668Z,2.15
2023-03-21T19:44:19.139Z,2.47
2023-03-21T19:46:48.396Z,2.15
2023-03-21T19:49:22.234Z,1.63
2023-03-21T19:51:51.384Z,2.33
2023-03-21T19:54:19.251Z,1.67
2023-03-21T19:56:48.275Z,2.33
2023-03-21T19:59:17.245Z,1.45
2023-03-21T20:01:46.005Z,2.50
2023-03-21T20:04:14.826Z,2.90
2023-03-21T20:06:44.074Z,1.70
2023-03-21T20:12:01.408Z,4.60
2023-03-21T20:14:29.212Z,4.97
2023-03-21T20:16:57.319Z,5.93
2023-03-21T20:19:25.791Z,8.80
2023-03-21T20:21:59.823Z,5.28
2023-03-21T20:24:29.983Z,5.90
2023-03-21T20:26:57.710Z,5.43
2023-03-21T20:32:13.169Z,2.63
2023-03-21T20:34:40.984Z,2.65
2023-03-21T20:37:11.396Z,2.03
2023-03-21T20:39:39.267Z,2.50
2023-03-21T20:42:07.110Z,2.33
2023-03-21T20:44:55.904Z,1.73
2023-03-21T20:47:23.659Z,2.03
2023-03-21T20:49:51.422Z,1.85
2023-03-21T20:55:09.279Z,1.83
2023-03-21T20:57:38.752Z,1.45
2023-03-21T21:00:13.704Z,1.98
2023-03-21T21:02:42.592Z,2.45
2023-03-21T21:05:25.389Z,2.40
2023-03-21T21:07:56.778Z,1.77
2023-03-21T21:10:25.943Z,2.30
2023-03-21T21:12:53.863Z,2.17
2023-03-21T21:15:22.073Z,1.30
2023-03-21T21:18:05.361Z,2.05
2023-03-21T21:20:33.787Z,1.73
2023-03-21T21:23:03.026Z,2.25
2023-03-21T21:25:33.467Z,3.88
2023-03-21T21:28:02.311Z,1.90
2023-03-21T21:30:30.368Z,1.88
2023-03-21T21:32:59.583Z,1.73
2023-03-21T21:35:27.597Z,3.45
2023-03-21T21:37:55.399Z,1.90
2023-03-21T21:40:25.596Z,2.00
2023-03-21T21:42:53.609Z,1.58
2023-03-21T21:45:21.615Z,1.73
2023-03-21T21:47:49.583Z,2.10
2023-03-21T21:50:17.467Z,1.75
2023-03-21T21:52:52.510Z,1.10
2023-03-21T21:55:20.463Z,2.00
2023-03-21T21:57:51.044Z,1.20
2023-03-21T22:00:20.322Z,3.28
2023-03-21T22:02:48.274Z,1.65
2023-03-21T22:05:16.258Z,1.52
2023-03-21T22:07:44.424Z,1.65
2023-03-21T22:10:12.273Z,2.50
2023-03-21T22:12:39.980Z,2.33
2023-03-21T22:15:10.754Z,2.05
2023-03-21T22:17:39.793Z,2.15
2023-03-21T22:20:09.731Z,2.33
2023-03-21T22:22:38.428Z,2.17
2023-03-21T22:25:08.310Z,2.65
2023-03-21T22:27:36.350Z,1.90
2023-03-21T22:30:05.396Z,2.00
2023-03-21T22:32:35.268Z,1.58
2023-03-21T22:35:03.370Z,2.22
2023-03-21T22:37:31.351Z,1.45
2023-03-21T22:39:59.092Z,1.20
2023-03-21T22:42:27.276Z,1.70
2023-03-21T22:44:55.043Z,2.00
2023-03-21T22:47:22.818Z,1.88
2023-03-21T22:49:52.230Z,2.10
2023-03-21T22:52:19.975Z,1.90
2023-03-21T22:54:49.131Z,1.52
2023-03-21T22:57:17.716Z,2.15
2023-03-21T22:59:45.479Z,2.22
2023-03-21T23:02:13.442Z,1.27
2023-03-21T23:04:41.561Z,1.63
2023-03-21T23:07:10.866Z,1.75
2023-03-21T23:09:38.787Z,2.30
2023-03-21T23:12:06.996Z,2.25
2023-03-21T23:14:34.830Z,2.28
2023-03-21T23:17:02.681Z,1.27
2023-03-21T23:19:31.251Z,1.95
2023-03-21T23:21:59.170Z,2.60
2023-03-21T23:24:28.282Z,1.60
2023-03-21T23:26:55.993Z,1.95
2023-03-21T23:29:23.700Z,1.52
2023-03-21T23:31:51.393Z,2.60
2023-03-21T23:34:19.534Z,1.67
2023-03-21T23:36:47.463Z,1.77
2023-03-21T23:39:16.488Z,2.42
2023-03-21T23:41:45.631Z,1.58
2023-03-21T23:44:13.380Z,1.85
2023-03-21T23:46:41.083Z,1.98
2023-03-21T23:49:08.872Z,1.90
2023-03-21T23:51:36.577Z,2.22
2023-03-21T23:54:04.471Z,1.77
2023-03-21T23:56:32.394Z,2.05
2023-03-21T23:59:01.860Z,2.60
